createdAt,value
2022-11-29T00:01:01.746Z,94.68
2022-11-29T00:03:29.848Z,128.15
2022-11-29T00:05:57.197Z,90.70
2022-11-29T00:08:25.080Z,83.72
2022-11-29T00:10:52.476Z,91.70
2022-11-29T00:13:25.480Z,103.03
2022-11-29T00:15:52.672Z,120.47
2022-11-29T00:18:19.903Z,120.78
2022-11-29T00:20:47.089Z,100.45
2022-11-29T00:23:14.303Z,78.63
2022-11-29T00:25:41.530Z,82.95
2022-11-29T00:28:08.838Z,81.03
2022-11-29T00:30:36.078Z,79.20
2022-11-29T00:33:03.771Z,84.35
2022-11-29T00:35:30.992Z,83.50
2022-11-29T00:37:58.286Z,103.93
2022-11-29T00:40:25.498Z,95.90
2022-11-29T00:42:52.784Z,108.50
2022-11-29T00:45:20.067Z,115.18
2022-11-29T00:47:47.295Z,122.85
2022-11-29T00:50:14.502Z,163.00
2022-11-29T00:52:41.753Z,101.13
2022-11-29T00:55:09.224Z,131.35
2022-11-29T00:57:36.504Z,183.05
2022-11-29T01:00:04.602Z,110.03
2022-11-29T01:02:31.874Z,202.85
2022-11-29T01:04:59.204Z,112.47
2022-11-29T01:07:26.503Z,131.35
2022-11-29T01:09:53.718Z,98.45
2022-11-29T01:12:20.995Z,231.55
2022-11-29T01:14:48.277Z,157.90
2022-11-29T01:17:15.560Z,96.50
2022-11-29T01:19:50.462Z,170.77
2022-11-29T01:22:20.889Z,167.65
2022-11-29T01:24:48.135Z,125.47
2022-11-29T01:27:15.655Z,122.13
2022-11-29T01:29:42.915Z,227.07
2022-11-29T01:32:12.312Z,131.80
2022-11-29T01:34:40.209Z,271.65
2022-11-29T01:37:07.402Z,155.85
2022-11-29T01:39:38.014Z,197.52
2022-11-29T01:42:05.408Z,113.95
2022-11-29T01:44:32.630Z,154.90
2022-11-29T01:46:59.895Z,110.28
2022-11-29T01:49:35.730Z,127.50
2022-11-29T01:52:14.040Z,121.40
2022-11-29T01:54:43.738Z,95.50
2022-11-29T01:57:11.569Z,90.80
2022-11-29T01:59:42.489Z,105.78
2022-11-29T02:02:17.815Z,194.10
2022-11-29T02:04:48.270Z,144.20
2022-11-29T02:07:18.039Z,100.68
2022-11-29T02:09:45.371Z,106.97
2022-11-29T02:12:21.801Z,124.78
2022-11-29T02:14:56.478Z,178.43
2022-11-29T02:17:35.385Z,81.03
2022-11-29T02:20:10.718Z,124.55
2022-11-29T02:22:52.351Z,149.52
2022-11-29T02:25:25.667Z,140.02
2022-11-29T02:28:05.139Z,102.75
2022-11-29T02:30:41.352Z,173.95
2022-11-29T02:33:17.495Z,118.68
2022-11-29T02:35:59.803Z,200.25
2022-11-29T02:38:45.259Z,196.85
2022-11-29T02:41:15.278Z,229.80
2022-11-29T02:44:18.221Z,191.63
2022-11-29T02:47:04.137Z,271.30
2022-11-29T02:49:42.380Z,319.02
2022-11-29T02:52:14.179Z,141.65
2022-11-29T02:54:47.585Z,138.23
2022-11-29T02:57:14.970Z,158.93
2022-11-29T02:59:57.866Z,132.82
2022-11-29T03:02:34.501Z,200.85
2022-11-29T03:05:19.835Z,138.27
2022-11-29T03:07:56.952Z,136.23
2022-11-29T03:10:39.582Z,107.05
2022-11-29T03:13:11.087Z,173.48
2022-11-29T03:16:00.514Z,110.18
2022-11-29T03:18:35.339Z,110.70
2022-11-29T03:21:08.747Z,126.47
2022-11-29T03:23:35.915Z,194.27
2022-11-29T03:26:11.566Z,205.57
2022-11-29T03:28:58.615Z,108.60
2022-11-29T03:31:36.764Z,116.55
2022-11-29T03:34:15.262Z,107.45
2022-11-29T03:36:48.379Z,128.68
2022-11-29T03:39:19.445Z,96.90
2022-11-29T03:41:52.718Z,102.82
2022-11-29T03:44:23.324Z,104.10
2022-11-29T03:46:57.158Z,139.82
2022-11-29T03:49:27.797Z,211.50
2022-11-29T03:52:14.026Z,130.40
2022-11-29T03:54:47.394Z,167.35
2022-11-29T03:57:18.384Z,93.28
2022-11-29T04:00:06.142Z,126.57
2022-11-29T04:02:47.587Z,99.13
2022-11-29T04:05:22.505Z,69.90
2022-11-29T04:07:52.446Z,68.35
2022-11-29T04:10:19.701Z,72.53
2022-11-29T04:13:05.878Z,101.28
2022-11-29T04:15:56.448Z,106.68
2022-11-29T04:18:39.433Z,201.10
2022-11-29T04:21:25.710Z,153.93
2022-11-29T04:24:11.604Z,102.53
2022-11-29T04:26:56.977Z,76.47
2022-11-29T04:29:27.312Z,102.68
2022-11-29T04:32:04.025Z,96.72
2022-11-29T04:34:50.010Z,101.25
2022-11-29T04:37:29.437Z,111.45
2022-11-29T04:40:08.989Z,89.53
2022-11-29T04:42:52.020Z,106.30
2022-11-29T04:45:38.257Z,153.85
2022-11-29T04:48:16.033Z,87.30
2022-11-29T04:51:01.973Z,89.88
2022-11-29T04:53:52.605Z,84.25
2022-11-29T04:56:26.202Z,68.10
2022-11-29T04:58:53.464Z,96.78
2022-11-29T05:01:20.937Z,103.75
2022-11-29T05:03:57.083Z,69.03
2022-11-29T05:06:29.182Z,86.70
2022-11-29T05:09:15.933Z,74.72
2022-11-29T05:12:04.473Z,64.20
2022-11-29T05:14:50.038Z,90.53
2022-11-29T05:17:34.269Z,83.22
2022-11-29T05:20:20.136Z,83.43
2022-11-29T05:22:47.381Z,121.35
2022-11-29T05:25:24.110Z,104.68
2022-11-29T05:28:01.111Z,132.80
2022-11-29T05:30:49.579Z,117.88
2022-11-29T05:33:35.183Z,77.97
2022-11-29T05:36:15.993Z,132.48
2022-11-29T05:39:03.489Z,77.40
2022-11-29T05:41:30.696Z,130.07
2022-11-29T05:44:01.061Z,121.55
2022-11-29T05:46:47.017Z,90.55
2022-11-29T05:49:36.109Z,83.55
2022-11-29T05:52:22.262Z,77.28
2022-11-29T05:55:08.231Z,98.45
2022-11-29T05:57:35.401Z,127.10
2022-11-29T06:00:03.816Z,102.20
2022-11-29T06:02:58.089Z,109.28
2022-11-29T06:05:48.661Z,116.35
2022-11-29T06:08:16.682Z,159.60
2022-11-29T06:11:05.784Z,122.28
2022-11-29T06:13:49.824Z,130.85
2022-11-29T06:16:23.073Z,86.72
2022-11-29T06:18:50.393Z,148.07
2022-11-29T06:21:27.524Z,89.80
2022-11-29T06:23:54.817Z,105.93
2022-11-29T06:26:25.304Z,132.15
2022-11-29T06:29:11.495Z,118.53
2022-11-29T06:31:44.395Z,110.00
2022-11-29T06:34:16.654Z,95.95
2022-11-29T06:36:55.052Z,93.82
2022-11-29T06:39:22.537Z,96.95
2022-11-29T06:41:49.820Z,100.25
2022-11-29T06:44:17.267Z,99.72
2022-11-29T06:46:48.756Z,98.28
2022-11-29T06:49:28.082Z,101.88
2022-11-29T06:51:55.302Z,126.50
2022-11-29T06:54:31.858Z,82.47
2022-11-29T06:57:14.624Z,80.75
2022-11-29T06:59:41.886Z,87.85
2022-11-29T07:02:38.565Z,107.15
2022-11-29T07:05:24.393Z,141.45
2022-11-29T07:07:53.402Z,105.25
2022-11-29T07:10:20.970Z,158.63
2022-11-29T07:12:49.525Z,70.75
2022-11-29T07:15:18.481Z,128.48
2022-11-29T07:17:45.688Z,98.10
2022-11-29T07:20:31.768Z,160.98
2022-11-29T07:22:59.023Z,182.27
2022-11-29T07:25:38.301Z,86.95
2022-11-29T07:28:05.537Z,99.85
2022-11-29T07:30:40.905Z,84.30
2022-11-29T07:33:08.111Z,119.82
2022-11-29T07:35:35.359Z,80.60
2022-11-29T07:38:02.682Z,84.50
2022-11-29T07:40:37.531Z,95.07
2022-11-29T07:43:21.910Z,86.50
2022-11-29T07:45:49.385Z,63.10
2022-11-29T07:48:17.222Z,106.05
2022-11-29T07:50:44.925Z,99.72
2022-11-29T07:53:17.089Z,62.17
2022-11-29T07:55:44.421Z,89.68
2022-11-29T07:58:12.914Z,75.68
2022-11-29T08:00:41.931Z,104.05
2022-11-29T08:03:10.052Z,63.58
2022-11-29T08:05:38.320Z,69.18
2022-11-29T08:08:05.818Z,66.55
2022-11-29T08:10:35.532Z,68.15
2022-11-29T08:15:30.147Z,61.17
2022-11-29T08:17:57.396Z,62.35
2022-11-29T08:20:24.919Z,80.95
2022-11-29T08:22:59.237Z,49.28
2022-11-29T08:25:27.344Z,57.95
2022-11-29T08:27:55.025Z,122.50
2022-11-29T08:30:22.537Z,73.28
2022-11-29T08:32:53.519Z,55.58
2022-11-29T08:35:21.834Z,62.28
2022-11-29T08:37:49.087Z,58.67
2022-11-29T08:40:16.482Z,52.25
2022-11-29T08:42:43.805Z,59.22
2022-11-29T08:45:11.754Z,53.97
2022-11-29T08:47:40.135Z,61.85
2022-11-29T08:50:14.266Z,54.60
2022-11-29T08:53:07.169Z,55.83
2022-11-29T08:55:46.455Z,52.13
2022-11-29T08:58:15.177Z,60.95
2022-11-29T09:00:44.124Z,34.85
2022-11-29T09:03:30.031Z,50.83
2022-11-29T09:05:57.700Z,84.25
2022-11-29T09:08:24.932Z,108.45
2022-11-29T09:10:53.043Z,38.47
2022-11-29T09:13:20.367Z,69.38
2022-11-29T09:15:47.688Z,55.28
2022-11-29T09:18:14.966Z,48.00
2022-11-29T09:20:45.591Z,58.15
2022-11-29T09:23:13.490Z,123.47
2022-11-29T09:25:40.799Z,111.45
2022-11-29T09:28:08.739Z,91.97
2022-11-29T09:30:37.929Z,133.10
2022-11-29T09:33:05.729Z,62.88
2022-11-29T09:35:35.743Z,64.95
2022-11-29T09:38:03.047Z,61.33
2022-11-29T09:40:42.181Z,77.35
2022-11-29T09:43:28.644Z,59.28
2022-11-29T09:46:25.048Z,43.92
2022-11-29T09:49:02.713Z,62.58
2022-11-29T09:51:41.218Z,62.00
2022-11-29T09:54:25.191Z,51.60
2022-11-29T09:56:53.379Z,47.88
2022-11-29T09:59:23.355Z,46.22
2022-11-29T10:01:56.024Z,38.10
2022-11-29T10:04:26.423Z,63.20
2022-11-29T10:06:53.658Z,38.28
2022-11-29T10:09:32.238Z,57.08
2022-11-29T10:12:07.015Z,60.40
2022-11-29T10:14:43.208Z,78.85
2022-11-29T10:17:26.051Z,87.53
2022-11-29T10:19:56.754Z,60.10
2022-11-29T10:22:45.715Z,75.43
2022-11-29T10:25:17.727Z,49.25
2022-11-29T10:27:45.021Z,64.38
2022-11-29T10:30:16.044Z,88.57
2022-11-29T10:32:45.129Z,62.70
2022-11-29T10:35:14.515Z,57.50
2022-11-29T10:37:41.782Z,52.45
2022-11-29T10:40:19.939Z,96.63
2022-11-29T10:42:52.579Z,69.93
2022-11-29T10:45:31.287Z,48.40
2022-11-29T10:48:07.358Z,46.22
2022-11-29T10:50:36.254Z,53.15
2022-11-29T10:53:06.522Z,35.55
2022-11-29T10:55:37.807Z,53.78
2022-11-29T10:58:09.296Z,44.13
2022-11-29T11:00:51.774Z,41.13
2022-11-29T11:03:26.215Z,44.75
2022-11-29T11:05:58.477Z,49.33
2022-11-29T11:08:28.994Z,54.60
2022-11-29T11:11:02.082Z,48.50
2022-11-29T11:13:30.734Z,32.78
2022-11-29T11:16:18.483Z,34.97
2022-11-29T11:18:46.793Z,49.38
2022-11-29T11:21:15.536Z,40.35
2022-11-29T11:23:52.342Z,47.07
2022-11-29T11:26:20.279Z,40.63
2022-11-29T11:28:47.437Z,34.85
2022-11-29T11:31:15.096Z,37.45
2022-11-29T11:33:43.683Z,36.05
2022-11-29T11:36:10.974Z,40.35
2022-11-29T11:38:39.878Z,42.40
2022-11-29T11:41:16.896Z,47.33
2022-11-29T11:43:50.318Z,46.15
2022-11-29T11:46:18.297Z,36.25
2022-11-29T11:48:46.700Z,36.25
2022-11-29T11:51:21.927Z,40.10
2022-11-29T11:53:55.184Z,45.78
2022-11-29T11:56:23.643Z,45.88
2022-11-29T11:58:52.865Z,38.55
2022-11-29T12:01:33.532Z,42.17
2022-11-29T12:04:07.068Z,35.65
2022-11-29T12:06:44.517Z,46.45
2022-11-29T12:09:30.845Z,38.72
2022-11-29T12:12:20.366Z,42.47
2022-11-29T12:14:58.779Z,38.03
2022-11-29T12:17:35.087Z,38.65
2022-11-29T12:20:10.441Z,32.05
2022-11-29T12:23:01.170Z,37.13
2022-11-29T12:25:30.984Z,40.95
2022-11-29T12:27:58.386Z,39.53
2022-11-29T12:30:25.702Z,41.63
2022-11-29T12:33:13.664Z,38.05
2022-11-29T12:35:40.959Z,48.67
2022-11-29T12:38:14.145Z,40.40
2022-11-29T12:40:50.560Z,43.03
2022-11-29T12:43:17.763Z,43.95
2022-11-29T12:46:03.846Z,39.20
2022-11-29T12:48:55.867Z,49.20
2022-11-29T12:51:44.037Z,40.90
2022-11-29T12:54:16.473Z,40.65
2022-11-29T12:57:02.556Z,44.40
2022-11-29T13:00:04.834Z,39.00
2022-11-29T13:02:41.698Z,37.05
2022-11-29T13:05:12.075Z,38.63
2022-11-29T13:07:47.877Z,37.42
2022-11-29T13:10:29.643Z,45.67
2022-11-29T13:13:00.305Z,36.22
2022-11-29T13:15:42.671Z,34.78
2022-11-29T13:18:34.819Z,35.15
2022-11-29T13:21:05.283Z,38.65
2022-11-29T13:24:10.148Z,34.85
2022-11-29T13:26:39.400Z,31.80
2022-11-29T13:29:07.370Z,29.60
2022-11-29T13:31:34.986Z,29.42
2022-11-29T13:34:15.554Z,26.50
2022-11-29T13:36:45.981Z,29.42
2022-11-29T13:39:18.955Z,26.10
2022-11-29T13:41:49.483Z,26.80
2022-11-29T13:44:22.863Z,29.50
2022-11-29T13:46:50.118Z,27.27
2022-11-29T13:49:21.513Z,23.35
2022-11-29T13:51:52.456Z,23.10
2022-11-29T13:54:27.831Z,22.30
2022-11-29T13:57:06.040Z,24.52
2022-11-29T13:59:35.206Z,20.75
2022-11-29T14:02:02.824Z,26.48
2022-11-29T14:04:30.303Z,22.38
2022-11-29T14:07:08.719Z,24.92
2022-11-29T14:09:44.579Z,27.83
2022-11-29T14:12:21.791Z,22.60
2022-11-29T14:14:52.829Z,23.25
2022-11-29T14:17:34.495Z,27.80
2022-11-29T14:20:20.530Z,23.02
2022-11-29T14:23:14.245Z,26.02
2022-11-29T14:26:01.747Z,23.42
2022-11-29T14:28:39.175Z,27.15
2022-11-29T14:31:07.501Z,23.52
2022-11-29T14:33:34.821Z,23.33
2022-11-29T14:36:28.644Z,25.77
2022-11-29T14:38:55.944Z,20.35
2022-11-29T14:41:42.267Z,23.80
2022-11-29T14:44:15.659Z,21.65
2022-11-29T14:46:43.488Z,22.77
2022-11-29T14:49:20.909Z,23.30
2022-11-29T14:52:23.630Z,25.15
2022-11-29T14:54:54.696Z,26.25
2022-11-29T14:57:41.064Z,24.58
2022-11-29T15:00:14.344Z,28.45
2022-11-29T15:02:41.709Z,29.17
2022-11-29T15:05:18.692Z,24.10
2022-11-29T15:07:57.157Z,26.35
2022-11-29T15:10:29.677Z,23.67
2022-11-29T15:12:59.182Z,22.60
2022-11-29T15:15:53.148Z,24.85
2022-11-29T15:18:31.022Z,25.17
2022-11-29T15:20:58.278Z,27.05
2022-11-29T15:23:25.542Z,24.35
2022-11-29T15:25:54.189Z,30.70
2022-11-29T15:28:26.189Z,26.60
2022-11-29T15:31:04.108Z,24.58
2022-11-29T15:33:31.678Z,27.33
2022-11-29T15:36:06.371Z,33.45
2022-11-29T15:38:42.281Z,49.50
2022-11-29T15:41:19.985Z,47.30
2022-11-29T15:43:49.313Z,52.95
2022-11-29T15:46:20.301Z,40.45
2022-11-29T15:48:50.458Z,44.10
2022-11-29T15:51:21.938Z,39.83
2022-11-29T15:54:00.401Z,48.75
2022-11-29T15:59:13.443Z,37.97
2022-11-29T16:01:41.033Z,58.10
2022-11-29T16:04:13.357Z,36.88
2022-11-29T16:06:42.637Z,41.42
2022-11-29T16:09:20.548Z,70.20
2022-11-29T16:11:48.505Z,43.78
2022-11-29T16:14:18.247Z,50.47
2022-11-29T16:19:20.042Z,30.92
2022-11-29T16:21:59.083Z,31.05
2022-11-29T16:24:26.974Z,49.08
2022-11-29T16:26:55.017Z,47.17
2022-11-29T16:29:34.824Z,24.48
2022-11-29T16:32:12.942Z,46.80
2022-11-29T16:34:42.054Z,34.63
2022-11-29T16:37:19.476Z,20.73
2022-11-29T16:39:48.612Z,50.60
2022-11-29T16:42:25.806Z,53.83
2022-11-29T16:45:02.539Z,55.38
2022-11-29T16:47:31.260Z,36.13
2022-11-29T16:50:10.675Z,48.07
2022-11-29T16:52:37.927Z,81.55
2022-11-29T16:55:05.265Z,41.70
2022-11-29T16:57:32.750Z,59.70
2022-11-29T17:00:00.092Z,47.80
2022-11-29T17:02:30.065Z,31.10
2022-11-29T17:04:58.155Z,23.27
2022-11-29T17:07:30.135Z,20.10
2022-11-29T17:09:57.775Z,27.15
2022-11-29T17:12:25.051Z,30.10
2022-11-29T17:14:52.339Z,41.47
2022-11-29T17:17:22.347Z,39.97
2022-11-29T17:19:49.616Z,25.10
2022-11-29T17:22:16.900Z,25.23
2022-11-29T17:24:47.968Z,20.88
2022-11-29T17:27:16.030Z,19.20
2022-11-29T17:29:43.242Z,20.90
2022-11-29T17:32:10.638Z,19.60
2022-11-29T17:34:37.964Z,20.58
2022-11-29T17:37:05.356Z,18.02
2022-11-29T17:39:34.339Z,19.88
2022-11-29T17:42:03.845Z,16.42
2022-11-29T17:44:36.521Z,18.77
2022-11-29T17:47:07.023Z,19.10
2022-11-29T17:49:37.056Z,18.58
2022-11-29T17:52:04.595Z,24.42
2022-11-29T17:54:35.953Z,24.50
2022-11-29T17:57:06.073Z,20.55
2022-11-29T17:59:33.434Z,19.52
2022-11-29T18:02:02.278Z,19.13
2022-11-29T18:04:29.632Z,19.30
2022-11-29T18:06:56.966Z,20.30
2022-11-29T18:09:24.189Z,20.75
2022-11-29T18:11:52.471Z,19.88
2022-11-29T18:14:23.837Z,19.75
2022-11-29T18:16:52.064Z,22.27
2022-11-29T18:19:20.587Z,21.05
2022-11-29T18:21:48.910Z,25.95
2022-11-29T18:24:16.954Z,22.55
2022-11-29T18:26:45.147Z,23.90
2022-11-29T18:29:12.388Z,27.00
2022-11-29T18:31:41.622Z,25.77
2022-11-29T18:34:10.122Z,16.83
2022-11-29T18:36:45.339Z,23.63
2022-11-29T18:39:14.478Z,23.02
2022-11-29T18:41:46.591Z,25.00
2022-11-29T18:44:14.948Z,29.02
2022-11-29T18:46:43.511Z,24.35
2022-11-29T18:49:12.091Z,29.05
2022-11-29T18:51:39.600Z,26.38
2022-11-29T18:54:07.341Z,24.65
2022-11-29T18:56:35.663Z,26.98
2022-11-29T18:59:04.758Z,24.52
2022-11-29T19:01:34.119Z,26.38
2022-11-29T19:04:02.215Z,25.23
2022-11-29T19:06:39.038Z,24.58
2022-11-29T19:09:08.076Z,24.10
2022-11-29T19:11:35.381Z,29.23
2022-11-29T19:14:04.047Z,26.08
2022-11-29T19:16:32.534Z,23.42
2022-11-29T19:19:00.392Z,27.30
2022-11-29T19:21:29.717Z,28.60
2022-11-29T19:23:58.091Z,30.17
2022-11-29T19:26:26.668Z,30.38
2022-11-29T19:28:54.345Z,26.73
2022-11-29T19:31:27.064Z,29.65
2022-11-29T19:33:54.990Z,29.45
2022-11-29T19:36:26.246Z,27.40
2022-11-29T19:38:54.543Z,32.63
2022-11-29T19:41:23.262Z,28.45
2022-11-29T19:43:50.775Z,32.33
2022-11-29T19:46:20.243Z,35.90
2022-11-29T19:48:52.212Z,42.67
2022-11-29T19:51:19.529Z,31.63
2022-11-29T19:53:47.580Z,34.97
2022-11-29T19:56:16.680Z,32.88
2022-11-29T19:58:44.627Z,32.80
2022-11-29T20:01:13.492Z,33.33
2022-11-29T20:03:41.106Z,31.88
2022-11-29T20:06:09.149Z,24.02
2022-11-29T20:08:37.201Z,28.60
2022-11-29T20:11:12.325Z,23.65
2022-11-29T20:13:40.168Z,22.98
2022-11-29T20:16:18.372Z,23.17
2022-11-29T20:18:50.698Z,25.02
2022-11-29T20:21:28.448Z,21.13
2022-11-29T20:23:59.648Z,22.33
2022-11-29T20:26:27.817Z,23.98
2022-11-29T20:28:57.432Z,25.02
2022-11-29T20:31:24.763Z,23.73
2022-11-29T20:33:53.493Z,24.75
2022-11-29T20:36:39.972Z,22.57
2022-11-29T20:39:26.315Z,26.52
2022-11-29T20:42:00.317Z,22.92
2022-11-29T20:44:43.498Z,23.98
2022-11-29T20:47:16.473Z,24.35
2022-11-29T20:49:44.197Z,25.50
2022-11-29T20:52:38.205Z,25.10
2022-11-29T20:55:05.787Z,26.13
2022-11-29T20:57:33.242Z,24.60
2022-11-29T21:00:00.579Z,25.55
2022-11-29T21:02:27.959Z,24.67
2022-11-29T21:04:55.232Z,27.55
2022-11-29T21:07:22.464Z,32.08
2022-11-29T21:09:49.826Z,29.25
2022-11-29T21:12:17.419Z,26.98
2022-11-29T21:14:45.153Z,29.10
2022-11-29T21:17:12.857Z,32.38
2022-11-29T21:19:41.338Z,27.70
2022-11-29T21:22:20.739Z,26.20
2022-11-29T21:24:51.015Z,23.90
2022-11-29T21:27:21.189Z,31.20
2022-11-29T21:29:48.784Z,26.20
2022-11-29T21:32:24.170Z,23.33
2022-11-29T21:34:51.773Z,25.77
2022-11-29T21:37:20.605Z,22.80
2022-11-29T21:39:48.488Z,26.60
2022-11-29T21:42:15.773Z,24.98
2022-11-29T21:44:43.904Z,21.70
2022-11-29T21:47:11.257Z,23.80
2022-11-29T21:49:38.531Z,22.33
2022-11-29T21:52:06.389Z,22.65
2022-11-29T21:54:33.755Z,24.08
2022-11-29T21:57:02.001Z,26.85
2022-11-29T21:59:29.937Z,24.25
2022-11-29T22:01:57.458Z,21.83
2022-11-29T22:04:25.300Z,20.02
2022-11-29T22:06:52.611Z,22.58
2022-11-29T22:09:19.905Z,21.45
2022-11-29T22:11:47.221Z,21.05
2022-11-29T22:14:18.876Z,25.85
2022-11-29T22:16:53.722Z,22.42
2022-11-29T22:19:26.068Z,19.00
2022-11-29T22:21:54.516Z,20.77
2022-11-29T22:24:23.375Z,22.33
2022-11-29T22:26:51.484Z,20.60
2022-11-29T22:29:19.091Z,19.55
2022-11-29T22:31:48.499Z,21.35
2022-11-29T22:34:16.156Z,19.20
2022-11-29T22:36:43.824Z,21.70
2022-11-29T22:39:11.153Z,21.23
2022-11-29T22:41:39.412Z,19.95
2022-11-29T22:44:07.186Z,21.10
2022-11-29T22:46:39.398Z,21.90
2022-11-29T22:49:06.786Z,22.58
2022-11-29T22:51:35.260Z,24.17
2022-11-29T22:54:03.787Z,20.77
2022-11-29T22:56:32.589Z,25.17
2022-11-29T22:58:59.900Z,24.90
2022-11-29T23:01:28.066Z,23.23
2022-11-29T23:03:56.847Z,26.15
2022-11-29T23:06:25.606Z,24.13
2022-11-29T23:08:53.687Z,20.23
2022-11-29T23:11:22.172Z,22.33
2022-11-29T23:13:49.446Z,22.38
2022-11-29T23:16:18.167Z,23.08
2022-11-29T23:18:46.165Z,24.27
2022-11-29T23:21:20.960Z,24.08
2022-11-29T23:23:54.536Z,20.17
2022-11-29T23:26:27.422Z,25.10
2022-11-29T23:28:55.288Z,18.33
2022-11-29T23:31:23.279Z,22.65
2022-11-29T23:33:50.877Z,18.63
2022-11-29T23:36:18.940Z,18.45
2022-11-29T23:38:48.132Z,23.15
2022-11-29T23:41:15.317Z,22.23
2022-11-29T23:43:42.927Z,20.08
2022-11-29T23:46:12.934Z,24.88
2022-11-29T23:48:40.319Z,24.80
2022-11-29T23:51:07.640Z,22.67
2022-11-29T23:53:34.847Z,20.63
2022-11-29T23:56:06.666Z,28.52
2022-11-29T23:58:35.945Z,20.30
